Map

Track Data

SID SEASON NUMBER BASIN SUBBASIN NAME ISO_TIME NATURE LAT LON WMO_WIND WMO_PRES WMO_AGENCY TRACK_TYPE DIST2LAND LANDFALL IFLAG USA_AGENCY USA_ATCF_ID USA_LAT USA_LON USA_RECORD USA_STATUS USA_WIND USA_PRES USA_SSHS USA_R34_NE USA_R34_SE USA_R34_SW USA_R34_NW USA_R50_NE USA_R50_SE USA_R50_SW USA_R50_NW USA_R64_NE USA_R64_SE USA_R64_SW USA_R64_NW USA_POCI USA_ROCI USA_RMW USA_EYE TOKYO_LAT TOKYO_LON TOKYO_GRADE TOKYO_WIND TOKYO_PRES TOKYO_R50_DIR TOKYO_R50_LONG TOKYO_R50_SHORT TOKYO_R30_DIR TOKYO_R30_LONG TOKYO_R30_SHORT TOKYO_LAND CMA_LAT CMA_LON CMA_CAT CMA_WIND CMA_PRES HKO_LAT HKO_LON HKO_CAT HKO_WIND HKO_PRES NEWDELHI_LAT NEWDELHI_LON NEWDELHI_GRADE NEWDELHI_WIND NEWDELHI_PRES NEWDELHI_CI NEWDELHI_DP NEWDELHI_POCI REUNION_LAT REUNION_LON REUNION_TYPE REUNION_WIND REUNION_PRES REUNION_TNUM REUNION_CI REUNION_RMW REUNION_R34_NE REUNION_R34_SE REUNION_R34_SW REUNION_R34_NW REUNION_R50_NE REUNION_R50_SE REUNION_R50_SW REUNION_R50_NW REUNION_R64_NE REUNION_R64_SE REUNION_R64_SW REUNION_R64_NW BOM_LAT BOM_LON BOM_TYPE BOM_WIND BOM_PRES BOM_TNUM BOM_CI BOM_RMW BOM_R34_NE BOM_R34_SE BOM_R34_SW BOM_R34_NW BOM_R50_NE BOM_R50_SE BOM_R50_SW BOM_R50_NW BOM_R64_NE BOM_R64_SE BOM_R64_SW BOM_R64_NW BOM_ROCI BOM_POCI BOM_EYE BOM_POS_METHOD BOM_PRES_METHOD NADI_LAT NADI_LON NADI_CAT NADI_WIND NADI_PRES WELLINGTON_LAT WELLINGTON_LON WELLINGTON_WIND WELLINGTON_PRES DS824_LAT DS824_LON DS824_STAGE DS824_WIND DS824_PRES TD9636_LAT TD9636_LON TD9636_STAGE TD9636_WIND TD9636_PRES TD9635_LAT TD9635_LON TD9635_WIND TD9635_PRES TD9635_ROCI NEUMANN_LAT NEUMANN_LON NEUMANN_CLASS NEUMANN_WIND NEUMANN_PRES MLC_LAT MLC_LON MLC_CLASS MLC_WIND MLC_PRES USA_GUST BOM_GUST BOM_GUST_PER REUNION_GUST REUNION_GUST_PER USA_SEAHGT USA_SEARAD_NE USA_SEARAD_SE USA_SEARAD_SW USA_SEARAD_NW STORM_SPEED STORM_DIR
1976070S15162 1976 30 SP MM GEORGE 1976-03-09 12:00:00 TS -15.0000 161.500 main 471 471 O________O____ jtwc_sh SH191976 -15.0000 161.500 -1 -15.0000 161.500 TC 13 165
1976070S15162 1976 30 SP MM GEORGE 1976-03-09 15:00:00 TS -15.6301 161.675 main 522 509 P________P____ SH191976 -15.6301 161.675 -1 -15.6301 161.675 TC 12 166
1976070S15162 1976 30 SP MM GEORGE 1976-03-09 18:00:00 TS -16.2000 161.800 main 509 470 O________O____ jtwc_sh SH191976 -16.2000 161.800 -1 -16.2000 161.800 TC 10 171
1976070S15162 1976 30 SP MM GEORGE 1976-03-09 21:00:00 TS -16.6600 161.838 main 460 432 P________P____ SH191976 -16.6600 161.838 -1 -16.6600 161.838 TC 8 179
1976070S15162 1976 30 SP MM GEORGE 1976-03-10 00:00:00 TS -17.0000 161.800 main 432 420 O________OO___ jtwc_sh SH191976 -17.0000 161.800 -1 -17.0000 161.800 TC -17.0000 161.800 2 6 192
1976070S15162 1976 30 SP MM GEORGE 1976-03-10 03:00:00 TS -17.2240 161.716 main 420 409 P________PP___ SH191976 -17.2300 161.723 -1 -17.2300 161.723 TC -17.2000 161.691 2 4 206
1976070S15162 1976 30 SP MM GEORGE 1976-03-10 06:00:00 TS -17.4000 161.593 main 409 399 O________OP___ jtwc_sh SH191976 -17.4000 161.600 -1 -17.4000 161.600 TC -17.4000 161.575 2 5 213
1976070S15162 1976 30 SP MM GEORGE 1976-03-10 09:00:00 TS -17.6000 161.459 main 399 398 P________PP___ SH191976 -17.6000 161.465 -1 -17.6000 161.465 TC -17.6000 161.447 2 4 211
1976070S15162 1976 30 SP MM GEORGE 1976-03-10 12:00:00 TS -17.7538 161.369 main 390 390 O________OO_O_ jtwc_sh SH191976 -17.8000 161.300 -1 -17.8000 161.300 TC -17.8000 161.300 2 -17.2000 162.200 TC 15 1006 5 210
1976070S15162 1976 30 SP MM GEORGE 1976-03-10 15:00:00 TS -17.9963 161.216 main 390 383 P________PP_P_ SH191976 -18.0075 161.108 -1 -18.0075 161.108 TC -17.9984 161.130 2 -17.9476 161.820 TC 15 1006 6 212
1976070S15162 1976 30 SP MM GEORGE 1976-03-10 18:00:00 TS -18.2966 161.010 main 386 379 O________OP_O_ jtwc_sh SH191976 -18.2000 160.900 -1 -18.2000 160.900 TC -18.1874 160.938 2 -18.7000 161.400 TC 15 1006 8 214
1976070S15162 1976 30 SP MM GEORGE 1976-03-10 21:00:00 TS -18.6238 160.764 main 385 385 P________PP_P_ SH191976 -18.3650 160.707 -1 -18.3650 160.707 TC -18.3577 160.727 2 -19.4074 160.916 TC 15 1006 7 227
1976070S15162 1976 30 SP MM GEORGE 1976-03-11 00:00:00 TS -18.7600 160.480 main 403 403 O________OO_O_ jtwc_sh SH191976 -18.5000 160.500 -1 -18.5000 160.500 TC -18.5000 160.500 2 -19.8000 160.400 TC 15 1006 5 255
1976070S15162 1976 30 SP MM GEORGE 1976-03-11 03:00:00 TS -18.7622 160.209 main 432 432 P________PP_P_ SH191976 -18.6150 160.257 -1 -18.6150 160.257 TC -18.6078 160.268 2 -19.6602 159.894 TC 15 1006 5 273
1976070S15162 1976 30 SP EA GEORGE 1976-03-11 06:00:00 TS -18.7346 159.961 main 455 455 O________OP_O_ jtwc_sh SH191976 -18.7000 160.000 -1 -18.7000 160.000 TC -18.6874 160.022 2 -19.2000 159.400 TC 15 1006 4 271
1976070S15162 1976 30 SP EA GEORGE 1976-03-11 09:00:00 TS -18.7544 159.755 main 470 470 P________PP___ SH191976 -18.7575 159.750 -1 -18.7575 159.750 TC -18.7484 159.765 2 TC 4 261
1976070S15162 1976 30 SP EA GEORGE 1976-03-11 12:00:00 TS -18.8000 159.500 main 500 500 O________OO___ jtwc_sh SH191976 -18.8000 159.500 -1 -18.8000 159.500 TC -18.8000 159.500 2 5 260
1976070S15162 1976 30 SP EA GEORGE 1976-03-11 15:00:00 TS -18.8373 159.261 main 520 520 P________PP___ SH191976 -18.8499 159.257 -1 -18.8499 159.257 TC -18.8120 159.268 2 5 261
1976070S15162 1976 30 SP EA GEORGE 1976-03-11 18:00:00 TS -18.8747 159.008 main 546 546 O________OP___ jtwc_sh SH191976 -18.9000 159.000 -1 -18.9000 159.000 TC -18.8242 159.023 2 5 262
1976070S15162 1976 30 SP EA GEORGE 1976-03-11 21:00:00 TS -18.9047 158.734 main 576 576 P________PP___ SH191976 -18.9199 158.730 -1 -18.9199 158.730 TC -18.8743 158.742 2 6 258
1976070S15162 1976 30 SP EA GEORGE 1976-03-12 00:00:00 TS -19.0000 158.400 main 604 604 O________OO___ jtwc_sh SH191976 -19.0000 158.400 -1 -19.0000 158.400 TC -19.0000 158.400 2 8 247
1976070S15162 1976 30 SP EA GEORGE 1976-03-12 03:00:00 TS -19.2057 157.972 main 639 639 P________PP___ SH191976 -19.1974 157.987 -1 -19.1974 157.987 TC -19.2223 157.941 2 10 240
1976070S15162 1976 30 SP EA GEORGE 1976-03-12 06:00:00 TS -19.5079 157.474 main 685 676 O________OP___ jtwc_sh SH191976 -19.5000 157.500 -1 -19.5000 157.500 TC -19.5236 157.423 2 12 236
1976070S15162 1976 30 SP EA GEORGE 1976-03-12 09:00:00 TS -19.8711 156.921 main 661 595 P________PP___ SH191976 -19.8627 156.935 -1 -19.8627 156.935 TC -19.8880 156.894 2 13 232
1976070S15162 1976 30 SP EA GEORGE 1976-03-12 12:00:00 TS -20.3000 156.400 main 595 531 O________OO___ jtwc_sh SH191976 -20.3000 156.400 -1 -20.3000 156.400 TC -20.3000 156.400 2 13 221
1976070S15162 1976 30 SP EA GEORGE 1976-03-12 15:00:00 TS -20.8130 156.051 main 531 467 P________PP___ SH191976 -20.7922 156.020 -1 -20.7922 156.020 TC -20.8547 156.114 2 12 210
1976070S15162 1976 30 SP EA GEORGE 1976-03-12 18:00:00 TS -21.3442 155.751 main 467 403 O________OP___ jtwc_sh SH191976 -21.3000 155.700 -1 -21.3000 155.700 TC -21.4325 155.853 2 12 208
1976070S15162 1976 30 SP EA GEORGE 1976-03-12 21:00:00 TS -21.8609 155.450 main 394 338 P________PP___ SH191976 -21.8318 155.418 -1 -21.8318 155.418 TC -21.9193 155.515 2 11 219
1976070S15162 1976 30 SP EA GEORGE 1976-03-13 00:00:00 TS -22.2000 155.000 main 338 297 O________OO___ jtwc_sh SH191976 -22.2000 155.000 -1 -22.2000 155.000 TC -22.2000 155.000 2 11 249
1976070S15162 1976 30 SP EA GEORGE 1976-03-13 03:00:00 TS -22.2631 154.297 main 297 271 P________PP___ SH191976 -22.2993 154.328 -1 -22.2993 154.328 TC -22.1906 154.235 2 15 276
1976070S15162 1976 30 SP EA GEORGE 1976-03-13 06:00:00 TS -22.0451 153.355 main 273 184 O________OP___ jtwc_sh SH191976 -22.1000 153.400 -1 -22.1000 153.400 TC -21.9354 153.264 2 20 289
1976070S15162 1976 30 SP EA GEORGE 1976-03-13 09:00:00 TS -21.5889 152.224 main 175 147 P________PP___ SH191976 -21.6273 152.255 -1 -21.6273 152.255 TC -21.5120 152.162 2 24 296
1976070S15162 1976 30 SP EA GEORGE 1976-03-13 12:00:00 TS -21.0000 151.000 main 159 O________OO___ jtwc_sh SH191976 -21.0000 151.000 -1 -21.0000 151.000 TC -21.0000 151.000 2 26 297

Digital Typhoon Data and Search

About IBTrACS Database

This database is a web-friendly format of International Best Track Archive for Climate Stewardship (IBTrACS), a global best track data archive curated by NOAA dating back to 1842.

Updated: 2021-10-25